Bard, California
Current Conditions -  °F | °C
As of 2:57 AM on Friday 28 Nov 2014 (Local Time) from KNYL Reporting Station
Clear Clear  
Wind Chill: 58°   Ceiling: Unl
Heat Index: 58°   Visibility: 10mi
Dew Point: 26°   Wind: 6mph
Humidity: 30%   Direction: 30°NNE
Pressure: 29.99"   Gusts: NA
Location:  32.79°N, 114.56°W
Report Text: KNYL 281057Z 03005KT 10SM CLR 14/M03 A2999 RMK AO2 SLP154 T01441033
Loading
Personal Weather Stations






























Interactive Weather Map New forecast layout! Learn more

10-Day Weather Forecast

Advertisements
Track Severe Weather on mobile